Time;durP1;ratioP1;P1;durP2;ratioP2;P2;SDS_P1;SDS_P2;PMS_P1;PMS_P2;Temp;Humidity;BMP_temperature;BMP_pressure;BME280_temperature;BME280_humidity;BME280_pressure;Samples;Min_cycle;Max_cycle;Signal;HPM_P1;HPM_P2
2022/09/23 00:01:13;;;;;;;11.80;5.90;;;;;;;6.17;100.00;99994.05;101088;1334;23339;-35
2022/09/23 00:03:41;;;;;;;9.80;4.00;;;;;;;6.15;100.00;99991.01;101015;1334;24281;-36
2022/09/23 00:06:09;;;;;;;4.30;2.70;;;;;;;6.15;100.00;99991.24;101090;1334;24456;-35
2022/09/23 00:08:35;;;;;;;4.10;2.40;;;;;;;6.15;100.00;99998.14;101096;1334;25272;-35
2022/09/23 00:11:05;;;;;;;7.30;4.90;;;;;;;6.13;100.00;100002.23;101106;1318;22490;-35
2022/09/23 00:13:32;;;;;;;6.90;4.00;;;;;;;6.12;100.00;100004.61;101099;1335;22524;-35
2022/09/23 00:16:01;;;;;;;12.10;5.70;;;;;;;6.12;100.00;100005.91;101080;1334;24472;-32
2022/09/23 00:18:27;;;;;;;5.20;3.20;;;;;;;6.14;100.00;100006.92;101076;1328;23035;-35
2022/09/23 00:20:52;;;;;;;6.60;4.50;;;;;;;6.10;100.00;100005.16;101043;1334;24372;-32
2022/09/23 00:23:18;;;;;;;7.50;4.20;;;;;;;6.10;100.00;100006.45;101039;1316;23105;-37
2022/09/23 00:25:44;;;;;;;6.80;4.10;;;;;;;6.09;100.00;100004.05;101027;1335;24412;-36
2022/09/23 00:28:09;;;;;;;6.20;4.00;;;;;;;6.03;100.00;100003.67;100836;1336;24579;-36
2022/09/23 00:30:35;;;;;;;9.80;4.70;;;;;;;6.02;100.00;99999.58;100865;1331;22877;-32
2022/09/23 00:33:00;;;;;;;5.70;3.50;;;;;;;5.98;100.00;99997.25;101093;1323;23225;-33
2022/09/23 00:35:26;;;;;;;6.10;4.40;;;;;;;5.98;100.00;99998.73;100879;1336;23090;-33
2022/09/23 00:37:51;;;;;;;7.80;5.00;;;;;;;5.95;100.00;99998.63;101010;1325;26021;-36
2022/09/23 00:40:17;;;;;;;7.90;5.20;;;;;;;5.93;100.00;99995.31;101096;1335;24482;-32
2022/09/23 00:42:46;;;;;;;8.20;4.90;;;;;;;5.90;100.00;100000.23;100844;1336;24274;-33
2022/09/23 00:45:12;;;;;;;14.00;4.30;;;;;;;5.85;100.00;100000.16;101126;1330;22942;-36
2022/09/23 00:47:46;;;;;;;12.40;4.00;;;;;;;5.82;100.00;99996.19;101054;1334;24410;-36
2022/09/23 00:50:20;;;;;;;9.30;5.40;;;;;;;5.81;100.00;99997.88;100734;1334;447160;-36
2022/09/23 00:52:45;;;;;;;5.60;4.10;;;;;;;5.79;100.00;99998.09;101059;1333;23154;-40
2022/09/23 00:55:14;;;;;;;7.60;4.60;;;;;;;5.77;100.00;99995.83;101057;1334;24468;-31
2022/09/23 00:57:42;;;;;;;6.60;4.80;;;;;;;5.73;100.00;99997.20;101069;1318;24351;-33
2022/09/23 01:00:09;;;;;;;10.70;5.70;;;;;;;5.70;100.00;100002.13;101043;1334;23090;-32
2022/09/23 01:02:36;;;;;;;3.90;1.80;;;;;;;5.65;100.00;100001.45;101075;1334;24373;-36
2022/09/23 01:05:03;;;;;;;6.90;4.70;;;;;;;5.62;100.00;100002.75;101052;1334;24370;-32
2022/09/23 01:07:29;;;;;;;10.00;5.10;;;;;;;5.58;100.00;100004.40;101073;1336;24487;-36
2022/09/23 01:09:54;;;;;;;5.70;3.60;;;;;;;5.54;100.00;100006.78;101106;1328;25031;-35
2022/09/23 01:12:25;;;;;;;8.80;4.80;;;;;;;5.52;100.00;100005.50;101032;1334;26472;-32
2022/09/23 01:14:52;;;;;;;5.20;3.70;;;;;;;5.50;100.00;100001.08;101135;1334;23014;-33
2022/09/23 01:17:41;;;;;;;6.90;3.20;;;;;;;5.47;100.00;100000.50;101010;1335;24414;-32
2022/09/23 01:20:15;;;;;;;7.10;4.10;;;;;;;5.46;100.00;100003.45;101063;1328;23096;-35
2022/09/23 01:22:45;;;;;;;7.20;4.50;;;;;;;5.41;100.00;100002.70;101035;1328;24376;-36
2022/09/23 01:25:16;;;;;;;6.20;4.90;;;;;;;5.38;100.00;100003.37;101003;1334;22742;-35
2022/09/23 01:27:43;;;;;;;5.20;4.20;;;;;;;5.34;100.00;100003.59;101036;1324;24469;-32
2022/09/23 01:30:16;;;;;;;11.20;5.80;;;;;;;5.30;100.00;100006.77;101072;1328;23185;-35
2022/09/23 01:32:46;;;;;;;5.30;3.40;;;;;;;5.29;100.00;100004.40;101025;1318;24337;-35
2022/09/23 01:35:22;;;;;;;9.60;4.40;;;;;;;5.26;100.00;100002.58;101053;1326;24450;-32
2022/09/23 01:37:51;;;;;;;17.40;4.70;;;;;;;5.25;100.00;100003.37;101035;1334;25592;-36
2022/09/23 01:40:37;;;;;;;9.10;4.30;;;;;;;5.23;100.00;100001.27;101052;1328;24468;-32
2022/09/23 01:43:07;;;;;;;8.20;4.20;;;;;;;5.21;100.00;99998.04;101012;1334;23217;-35
2022/09/23 01:45:35;;;;;;;10.20;4.20;;;;;;;5.19;100.00;99996.81;101014;1334;22862;-33
2022/09/23 01:48:12;;;;;;;9.50;5.70;;;;;;;5.18;100.00;99996.60;101057;1328;23223;-35
2022/09/23 01:53:20;;;;;;;8.70;4.40;;;;;;;5.18;100.00;99997.14;100872;1336;26516;-32
2022/09/23 01:55:49;;;;;;;17.70;9.00;;;;;;;5.20;100.00;100001.52;101079;1334;24430;-35
2022/09/23 01:58:20;;;;;;;14.10;5.10;;;;;;;5.23;100.00;100006.73;101085;1334;23090;-36
2022/09/23 02:00:50;;;;;;;10.00;4.50;;;;;;;5.25;100.00;100006.38;101104;1328;23273;-34
2022/09/23 02:03:17;;;;;;;13.40;5.10;;;;;;;5.26;100.00;100006.98;101059;1328;22544;-36
2022/09/23 02:05:51;;;;;;;7.40;6.30;;;;;;;5.23;100.00;100010.30;101115;1328;22484;-32
2022/09/23 02:08:19;;;;;;;;;;;;;;;5.24;100.00;100007.90;101004;1334;23232;-31
2022/09/23 02:10:48;;;;;;;9.00;5.00;;;;;;;5.24;100.00;100008.23;101096;1336;23084;-32
2022/09/23 02:13:19;;;;;;;6.50;4.60;;;;;;;5.22;100.00;100006.16;101002;1328;22742;-35
2022/09/23 02:15:48;;;;;;;8.40;5.10;;;;;;;5.19;100.00;100009.41;101074;1334;25321;-35
2022/09/23 02:18:16;;;;;;;2.40;1.00;;;;;;;5.18;100.00;100012.04;100866;1327;22742;-31
2022/09/23 02:20:42;;;;;;;7.30;5.00;;;;;;;5.14;100.00;100007.60;101111;1334;22742;-36
2022/09/23 02:23:12;;;;;;;6.40;4.10;;;;;;;5.09;100.00;100003.81;101055;1324;22484;-32
2022/09/23 02:25:43;;;;;;;7.30;4.30;;;;;;;5.07;100.00;100004.58;101127;1335;22742;-32
2022/09/23 02:28:12;;;;;;;3.70;3.30;;;;;;;5.03;100.00;99997.70;101051;1334;24436;-35
2022/09/23 02:30:44;;;;;;;13.10;5.20;;;;;;;4.99;100.00;99995.58;101077;1334;24488;-32
2022/09/23 02:33:15;;;;;;;8.90;4.80;;;;;;;4.95;100.00;99996.83;101071;1327;24360;-32
2022/09/23 02:35:47;;;;;;;6.50;3.80;;;;;;;4.89;100.00;100000.23;101052;1334;24372;-32
2022/09/23 02:38:18;;;;;;;7.80;5.10;;;;;;;4.85;100.00;99997.98;101075;1336;22512;-35
2022/09/23 02:40:52;;;;;;;8.70;4.80;;;;;;;4.79;100.00;99998.54;101067;1328;22878;-34
2022/09/23 02:43:22;;;;;;;6.40;3.90;;;;;;;4.75;100.00;99999.61;101030;1328;22863;-32
2022/09/23 02:45:48;;;;;;;6.50;5.30;;;;;;;4.71;100.00;100002.77;101085;1334;22858;-35
2022/09/23 02:48:20;;;;;;;6.90;4.70;;;;;;;4.67;100.00;100004.73;101061;1328;24359;-31
2022/09/23 02:50:46;;;;;;;9.90;5.70;;;;;;;4.64;100.00;100010.20;101066;1336;24331;-33
2022/09/23 02:53:12;;;;;;;7.50;4.00;;;;;;;4.60;100.00;100011.45;101084;1328;22751;-32
2022/09/23 02:55:38;;;;;;;7.60;5.50;;;;;;;4.56;100.00;100007.73;101077;1320;23141;-33
2022/09/23 02:58:04;;;;;;;7.60;4.60;;;;;;;4.54;100.00;100008.98;101059;1326;23232;-36
2022/09/23 03:00:38;;;;;;;21.20;5.80;;;;;;;4.53;100.00;100008.04;101057;1334;22705;-35
2022/09/23 03:03:05;;;;;;;8.10;4.60;;;;;;;4.47;100.00;100001.49;101088;1336;22524;-35
2022/09/23 03:05:34;;;;;;;5.90;3.80;;;;;;;4.42;100.00;100013.98;101046;1326;24346;-34
2022/09/23 03:08:04;;;;;;;10.80;5.70;;;;;;;4.37;100.00;100013.45;101059;1328;22868;-32
2022/09/23 03:10:35;;;;;;;10.30;5.30;;;;;;;4.32;100.00;100018.48;101094;1328;22738;-36
2022/09/23 03:13:04;;;;;;;12.00;6.00;;;;;;;4.28;100.00;100013.38;101092;1336;22505;-35
2022/09/23 03:15:30;;;;;;;12.50;6.50;;;;;;;4.25;100.00;100016.48;101021;1334;23249;-35
2022/09/23 03:18:07;;;;;;;6.50;4.20;;;;;;;4.18;100.00;100017.95;101050;1328;22454;-31
2022/09/23 03:20:37;;;;;;;8.20;5.90;;;;;;;4.12;100.00;100023.69;101028;1336;22508;-37
2022/09/23 03:23:05;;;;;;;8.00;3.80;;;;;;;4.04;100.00;100023.88;101049;1336;24072;-35
2022/09/23 03:25:33;;;;;;;8.70;4.90;;;;;;;4.03;100.00;100024.29;101090;1334;24277;-33
2022/09/23 03:27:59;;;;;;;4.40;3.30;;;;;;;3.99;100.00;100024.33;101114;1335;22512;-35
2022/09/23 03:30:25;;;;;;;8.80;4.60;;;;;;;3.95;100.00;100023.45;101060;1334;24294;-32
2022/09/23 03:32:50;;;;;;;15.60;6.90;;;;;;;3.88;100.00;100021.97;101054;1334;24305;-32
2022/09/23 03:35:16;;;;;;;3.90;2.40;;;;;;;3.81;100.00;100026.35;101026;1334;22629;-32
2022/09/23 03:37:51;;;;;;;8.20;5.10;;;;;;;3.77;100.00;100019.26;101064;1328;23132;-35
2022/09/23 03:40:21;;;;;;;4.80;3.40;;;;;;;3.72;100.00;100018.75;101067;1328;24372;-32
2022/09/23 03:42:47;;;;;;;5.60;3.70;;;;;;;3.62;100.00;100014.55;101034;1335;23102;-32
2022/09/23 03:45:17;;;;;;;6.20;3.80;;;;;;;3.51;100.00;100012.84;100853;1336;24861;-32
2022/09/23 03:47:43;;;;;;;4.90;3.40;;;;;;;3.42;100.00;100010.63;101097;1336;23885;-32
2022/09/23 03:50:09;;;;;;;5.50;2.80;;;;;;;3.36;100.00;100008.36;101051;1334;23081;-31
2022/09/23 03:52:34;;;;;;;3.60;2.20;;;;;;;3.27;100.00;100006.31;100896;1336;24871;-35
2022/09/23 03:55:00;;;;;;;5.10;3.50;;;;;;;3.25;100.00;100001.48;101039;1318;22744;-35
2022/09/23 03:57:26;;;;;;;8.00;5.20;;;;;;;3.23;100.00;99999.06;101061;1328;22871;-32
2022/09/23 03:59:52;;;;;;;8.20;5.00;;;;;;;3.22;100.00;100002.35;101031;1334;23381;-32
2022/09/23 04:02:19;;;;;;;8.70;3.90;;;;;;;3.21;100.00;100001.55;101021;1334;22738;-35
2022/09/23 04:04:44;;;;;;;4.60;1.40;;;;;;;3.23;100.00;100003.13;101080;1328;23243;-32
2022/09/23 04:07:10;;;;;;;6.30;3.10;;;;;;;3.23;100.00;100008.73;101060;1328;23201;-32
2022/09/23 04:09:36;;;;;;;8.10;4.50;;;;;;;3.25;100.00;100016.39;101004;1334;23066;-35
2022/09/23 04:12:02;;;;;;;8.60;5.20;;;;;;;3.18;100.00;100014.75;101067;1320;24284;-36
2022/09/23 04:14:28;;;;;;;8.70;3.60;;;;;;;3.09;100.00;100003.13;101083;1328;23019;-32
2022/09/23 04:16:54;;;;;;;5.10;4.20;;;;;;;3.03;100.00;99997.27;101073;1334;22741;-32
2022/09/23 04:19:19;;;;;;;5.50;3.60;;;;;;;3.02;100.00;99998.94;100821;1322;22708;-33
2022/09/23 04:21:45;;;;;;;5.70;3.70;;;;;;;3.00;100.00;100001.38;101024;1328;22880;-32
2022/09/23 04:24:11;;;;;;;13.20;6.70;;;;;;;3.01;100.00;100003.29;101018;1336;23220;-34
2022/09/23 04:26:37;;;;;;;10.90;4.70;;;;;;;3.01;100.00;100002.78;101043;1318;23215;-31
2022/09/23 04:29:03;;;;;;;10.20;4.50;;;;;;;3.00;100.00;100004.60;101073;1318;22753;-35
2022/09/23 04:31:30;;;;;;;7.90;4.90;;;;;;;2.98;100.00;100003.20;101068;1328;23214;-31
2022/09/23 04:33:55;;;;;;;6.10;3.90;;;;;;;2.97;100.00;100002.41;101099;1335;24373;-31
2022/09/23 04:36:21;;;;;;;7.90;4.00;;;;;;;3.00;100.00;100006.58;101043;1334;24358;-31
2022/09/23 04:38:47;;;;;;;6.70;2.70;;;;;;;3.10;100.00;100018.79;101070;1328;22884;-31
2022/09/23 04:41:13;;;;;;;9.90;4.60;;;;;;;3.08;100.00;100025.85;100841;1336;22707;-31
2022/09/23 04:43:38;;;;;;;3.60;2.50;;;;;;;2.99;100.00;100034.42;101131;1328;22764;-31
2022/09/23 04:46:06;;;;;;;10.10;5.30;;;;;;;2.98;100.00;100035.42;100936;1330;24453;-31
2022/09/23 04:48:32;;;;;;;12.40;6.50;;;;;;;3.01;100.00;100039.40;101053;1328;24789;-34
2022/09/23 04:51:02;;;;;;;9.40;4.40;;;;;;;3.07;100.00;100036.19;101144;1336;22539;-32
2022/09/23 04:53:28;;;;;;;18.00;7.90;;;;;;;3.13;100.00;100032.27;101109;1328;23086;-33
2022/09/23 04:55:54;;;;;;;22.60;8.90;;;;;;;3.12;100.00;100029.89;100848;1336;22742;-30
2022/09/23 04:58:21;;;;;;;15.20;7.80;;;;;;;3.09;100.00;100020.65;101026;1328;24590;-35
2022/09/23 05:00:49;;;;;;;12.10;7.00;;;;;;;3.10;100.00;100016.67;101074;1335;22537;-33
2022/09/23 05:03:15;;;;;;;17.40;7.60;;;;;;;3.02;100.00;100008.99;101017;1334;23102;-36
2022/09/23 05:05:41;;;;;;;13.10;7.90;;;;;;;2.96;100.00;100004.98;101055;1320;24286;-33
2022/09/23 05:08:06;;;;;;;14.70;6.20;;;;;;;2.89;100.00;100004.38;101049;1328;23092;-37
2022/09/23 05:10:32;;;;;;;7.00;4.30;;;;;;;2.91;100.00;100009.70;101033;1321;22801;-36
2022/09/23 05:12:58;;;;;;;10.40;7.60;;;;;;;2.98;100.00;100015.02;101064;1334;22887;-36
2022/09/23 05:15:23;;;;;;;8.60;5.20;;;;;;;3.02;100.00;100016.98;100899;1336;22742;-33
2022/09/23 05:17:49;;;;;;;;;;;;;;;2.97;100.00;100018.71;100958;1328;22763;-33
2022/09/23 05:20:15;;;;;;;22.00;7.40;;;;;;;2.91;100.00;100017.28;100994;1334;23230;-36
2022/09/23 05:22:40;;;;;;;12.60;6.20;;;;;;;2.93;100.00;100022.35;101055;1320;23210;-36
2022/09/23 05:25:06;;;;;;;8.50;4.50;;;;;;;2.97;100.00;100023.10;101114;1336;22854;-31
2022/09/23 05:27:32;;;;;;;22.40;8.20;;;;;;;3.01;100.00;100024.19;100911;1327;22837;-34
2022/09/23 05:29:58;;;;;;;9.20;6.10;;;;;;;3.02;100.00;100026.89;100896;1326;23004;-31
2022/09/23 05:32:25;;;;;;;11.50;5.50;;;;;;;3.06;100.00;100025.00;101027;1328;22754;-31
2022/09/23 05:34:54;;;;;;;6.10;4.70;;;;;;;3.16;100.00;100031.73;101058;1320;24555;-35
2022/09/23 05:37:19;;;;;;;6.40;4.50;;;;;;;3.29;100.00;100036.42;101097;1334;23053;-32
2022/09/23 05:39:45;;;;;;;13.90;7.00;;;;;;;3.35;100.00;100040.13;101046;1334;23352;-37
2022/09/23 05:42:11;;;;;;;14.30;7.00;;;;;;;3.41;100.00;100041.07;101108;1336;23094;-33
2022/09/23 05:44:38;;;;;;;10.10;7.10;;;;;;;3.50;100.00;100044.28;100843;1328;22705;-32
2022/09/23 05:47:04;;;;;;;6.30;4.40;;;;;;;3.56;100.00;100045.52;101165;1331;25271;-35
2022/09/23 05:49:29;;;;;;;8.90;5.20;;;;;;;3.58;100.00;100053.82;101050;1334;22858;-32
2022/09/23 05:51:55;;;;;;;4.60;4.00;;;;;;;3.64;100.00;100054.58;100877;1336;23221;-35
2022/09/23 05:54:21;;;;;;;11.30;6.10;;;;;;;3.77;100.00;100060.85;101057;1328;22972;-33
2022/09/23 05:56:46;;;;;;;15.80;7.10;;;;;;;3.91;100.00;100061.94;101102;1327;24361;-32
2022/09/23 05:59:12;;;;;;;13.40;7.90;;;;;;;4.11;100.00;100062.58;100958;1336;23096;-35
2022/09/23 06:01:38;;;;;;;10.30;7.30;;;;;;;4.31;100.00;100064.32;101070;1321;22505;-36
2022/09/23 06:04:04;;;;;;;15.00;9.90;;;;;;;4.49;100.00;100063.00;101081;1328;24861;-33
2022/09/23 06:06:32;;;;;;;10.90;2.60;;;;;;;4.71;100.00;100062.92;101121;1333;25618;-37
2022/09/23 06:08:58;;;;;;;11.30;8.80;;;;;;;4.92;100.00;100067.05;101079;1336;24299;-34
2022/09/23 06:11:24;;;;;;;12.50;8.80;;;;;;;5.14;100.00;100068.48;100869;1336;22748;-34
2022/09/23 06:13:55;;;;;;;14.80;9.40;;;;;;;5.41;100.00;100070.17;101078;1327;23109;-34
2022/09/23 06:16:20;;;;;;;10.70;7.70;;;;;;;5.68;100.00;100070.43;101050;1319;22516;-35
2022/09/23 06:18:46;;;;;;;11.60;5.70;;;;;;;5.94;100.00;100068.64;101009;1328;23083;-32
2022/09/23 06:21:14;;;;;;;12.60;7.10;;;;;;;6.17;100.00;100064.79;101015;1327;23515;-33
2022/09/23 06:23:40;;;;;;;11.50;6.30;;;;;;;6.35;100.00;100053.72;101018;1336;22717;-32
2022/09/23 06:26:07;;;;;;;12.70;8.40;;;;;;;6.57;100.00;100045.30;101016;1334;23341;-33
2022/09/23 06:28:34;;;;;;;15.60;7.80;;;;;;;6.72;100.00;100041.11;101103;1334;22741;-35
2022/09/23 06:31:00;;;;;;;;;;;;;;;6.82;100.00;100038.64;100982;1336;22840;-38
2022/09/23 06:33:26;;;;;;;5.20;4.30;;;;;;;6.94;100.00;100031.65;101076;1335;22748;-35
2022/09/23 06:35:55;;;;;;;14.40;9.50;;;;;;;7.04;100.00;100027.91;101036;1327;24293;-37
2022/09/23 06:38:21;;;;;;;11.20;6.70;;;;;;;7.17;100.00;100024.40;101038;1334;22738;-32
2022/09/23 06:40:50;;;;;;;14.20;9.10;;;;;;;7.27;100.00;100026.73;101035;1327;23218;-36
2022/09/23 06:43:15;;;;;;;10.00;7.40;;;;;;;7.43;100.00;100022.15;101085;1336;24311;-35
2022/09/23 06:45:41;;;;;;;12.40;7.30;;;;;;;7.61;100.00;100021.68;101097;1334;24275;-35
2022/09/23 06:48:08;;;;;;;8.80;6.10;;;;;;;7.72;100.00;100026.25;101047;1335;23055;-32
2022/09/23 06:50:34;;;;;;;16.40;7.40;;;;;;;7.75;100.00;100026.15;101020;1336;23046;-36
2022/09/23 06:53:00;;;;;;;36.20;17.70;;;;;;;7.81;100.00;100019.96;101054;1328;22732;-32
2022/09/23 06:55:26;;;;;;;29.50;14.40;;;;;;;7.94;100.00;100007.86;101084;1331;23871;-36
2022/09/23 06:57:53;;;;;;;43.40;20.10;;;;;;;8.07;100.00;100013.96;101101;1336;24397;-37
2022/09/23 07:00:19;;;;;;;30.80;18.00;;;;;;;8.10;100.00;100013.08;101130;1328;22495;-37
2022/09/23 07:02:46;;;;;;;28.90;16.60;;;;;;;8.05;100.00;99970.70;101125;1328;22865;-34
2022/09/23 07:05:12;;;;;;;21.00;14.20;;;;;;;8.06;100.00;99932.77;101133;1328;22841;-37
2022/09/23 07:07:38;;;;;;;32.70;18.80;;;;;;;8.29;100.00;99937.84;101099;1328;24233;-37
2022/09/23 07:10:05;;;;;;;19.60;13.40;;;;;;;8.52;100.00;99953.61;101089;1333;22955;-34
2022/09/23 07:12:31;;;;;;;21.20;12.80;;;;;;;8.75;100.00;99956.14;101142;1334;24324;-37
2022/09/23 07:14:57;;;;;;;19.60;13.00;;;;;;;9.11;100.00;99969.16;101094;1327;22780;-35
2022/09/23 07:17:24;;;;;;;24.30;14.00;;;;;;;9.52;100.00;99969.61;101054;1324;22754;-37
2022/09/23 07:19:50;;;;;;;22.10;12.30;;;;;;;9.91;100.00;99976.46;101066;1336;23265;-38
2022/09/23 07:22:17;;;;;;;18.10;10.90;;;;;;;10.29;100.00;99969.52;101090;1336;24337;-37
2022/09/23 07:24:45;;;;;;;15.80;11.10;;;;;;;10.64;100.00;99957.62;101116;1334;22629;-35
2022/09/23 07:27:15;;;;;;;22.10;13.20;;;;;;;10.85;100.00;99958.14;101101;1334;22865;-38
2022/09/23 07:29:41;;;;;;;22.50;16.90;;;;;;;10.94;100.00;99940.61;101142;1333;25290;-35
2022/09/23 07:32:08;;;;;;;18.00;13.70;;;;;;;11.19;100.00;99942.92;101108;1328;23088;-37
2022/09/23 07:34:33;;;;;;;26.80;14.50;;;;;;;11.56;100.00;99963.45;101099;1332;22764;-38
2022/09/23 07:36:59;;;;;;;17.40;11.50;;;;;;;11.86;100.00;99950.52;101077;1334;23011;-35
2022/09/23 07:39:25;;;;;;;;;;;;;;;12.07;100.00;99940.20;101085;1334;22484;-38
2022/09/23 07:41:50;;;;;;;16.50;10.20;;;;;;;12.29;100.00;99929.17;101048;1336;22738;-35
2022/09/23 07:44:18;;;;;;;13.00;10.90;;;;;;;12.56;100.00;99928.31;101058;1334;22967;-36
2022/09/23 07:46:43;;;;;;;13.20;7.90;;;;;;;12.88;100.00;99924.73;101115;1336;24380;-37
2022/09/23 07:49:09;;;;;;;7.40;5.70;;;;;;;13.08;100.00;99925.92;101126;1328;22741;-35
2022/09/23 07:51:37;;;;;;;13.10;8.50;;;;;;;13.38;100.00;99929.11;101070;1334;22738;-37
2022/09/23 07:54:06;;;;;;;8.30;7.40;;;;;;;13.64;100.00;99923.17;101063;1325;22517;-36
2022/09/23 07:56:32;;;;;;;8.30;6.60;;;;;;;13.77;100.00;99913.04;100914;1336;24234;-37
2022/09/23 07:58:59;;;;;;;7.10;6.30;;;;;;;13.80;100.00;99916.52;101096;1334;24459;-38
2022/09/23 08:01:28;;;;;;;10.10;6.20;;;;;;;13.78;100.00;99919.14;101050;1324;22887;-38
2022/09/23 08:04:17;;;;;;;10.80;5.10;;;;;;;14.09;100.00;99917.64;101038;1328;25342;-35
2022/09/23 08:06:47;;;;;;;11.70;4.70;;;;;;;14.04;100.00;99913.58;101054;1313;24388;-34
2022/09/23 08:09:13;;;;;;;5.90;3.50;;;;;;;13.99;100.00;99909.41;101042;1334;24353;-35
2022/09/23 08:11:40;;;;;;;4.30;3.00;;;;;;;13.93;100.00;99906.45;101027;1328;22867;-36
2022/09/23 08:14:07;;;;;;;3.00;2.30;;;;;;;14.12;97.75;99908.26;101065;1334;22744;-35
2022/09/23 08:16:34;;;;;;;3.80;2.80;;;;;;;13.90;95.09;99908.12;101119;1328;22878;-37
2022/09/23 08:19:01;;;;;;;6.50;3.80;;;;;;;14.09;96.18;99905.48;101078;1321;23094;-37
2022/09/23 08:21:26;;;;;;;5.10;3.30;;;;;;;14.50;95.02;99901.02;101081;1334;23313;-34
2022/09/23 08:23:52;;;;;;;5.70;3.50;;;;;;;14.76;89.30;99903.86;101090;1326;23219;-34
2022/09/23 08:26:18;;;;;;;3.50;2.40;;;;;;;14.61;86.42;99901.92;101035;1328;22893;-35
2022/09/23 08:28:44;;;;;;;6.00;4.60;;;;;;;14.74;83.29;99903.75;100843;1328;23208;-36
2022/09/23 08:31:12;;;;;;;6.00;2.80;;;;;;;14.40;86.09;99897.95;100857;1336;23370;-37
2022/09/23 08:33:38;;;;;;;3.70;3.10;;;;;;;14.87;89.68;99898.39;101100;1324;23087;-34
2022/09/23 08:36:04;;;;;;;8.00;5.40;;;;;;;15.38;86.36;99898.29;101000;1320;23226;-36
2022/09/23 08:38:30;;;;;;;4.30;3.50;;;;;;;15.57;81.19;99892.52;101079;1334;22502;-34
2022/09/23 08:41:03;;;;;;;6.00;2.90;;;;;;;15.24;79.96;99890.02;101105;1334;22876;-37
2022/09/23 08:43:30;;;;;;;3.50;3.20;;;;;;;15.33;82.44;99881.52;101050;1334;24281;-34
2022/09/23 08:45:57;;;;;;;8.80;3.90;;;;;;;15.46;80.57;99879.14;101128;1328;22998;-35
2022/09/23 08:48:28;;;;;;;4.60;4.10;;;;;;;15.54;81.54;99877.09;101093;1334;24819;-36
2022/09/23 08:50:58;;;;;;;6.00;3.90;;;;;;;15.94;80.81;99869.27;100764;1328;446245;-34
2022/09/23 08:53:25;;;;;;;3.80;3.40;;;;;;;16.00;77.35;99869.59;101019;1334;22764;-34
2022/09/23 08:55:52;;;;;;;3.90;2.70;;;;;;;16.43;73.07;99860.88;101129;1328;22719;-38
2022/09/23 08:58:20;;;;;;;4.60;2.80;;;;;;;16.00;73.04;99864.64;101038;1334;22897;-37
2022/09/23 09:00:55;;;;;;;3.00;2.70;;;;;;;15.82;71.47;99859.35;101042;1328;22834;-37
2022/09/23 09:03:22;;;;;;;2.90;2.20;;;;;;;15.85;69.99;99861.49;101068;1335;24321;-34
2022/09/23 09:05:49;;;;;;;4.80;2.00;;;;;;;16.01;70.22;99859.70;101157;1311;25248;-37
2022/09/23 09:08:22;;;;;;;4.70;2.10;;;;;;;16.16;70.10;99854.06;101056;1334;23224;-34
2022/09/23 09:10:48;;;;;;;2.20;1.90;;;;;;;16.70;68.67;99859.44;100883;1336;24236;-34
2022/09/23 09:13:22;;;;;;;2.40;1.80;;;;;;;16.41;66.51;99855.98;101035;1335;22509;-36
2022/09/23 09:15:55;;;;;;;4.70;2.30;;;;;;;16.67;66.24;99852.54;101060;1334;22807;-36
2022/09/23 09:18:20;;;;;;;4.70;2.90;;;;;;;16.95;66.96;99853.52;101116;1328;24253;-34
2022/09/23 09:20:56;;;;;;;4.10;1.90;;;;;;;17.09;66.72;99852.83;101047;1336;24856;-36
2022/09/23 09:23:23;;;;;;;14.20;2.90;;;;;;;17.27;65.50;99852.86;101060;1328;24304;-34
2022/09/23 09:25:50;;;;;;;2.80;1.40;;;;;;;17.11;63.69;99852.46;100991;1328;22510;-35
2022/09/23 09:28:23;;;;;;;1.80;1.70;;;;;;;16.85;59.68;99852.27;101091;1328;22754;-34
2022/09/23 09:30:52;;;;;;;2.80;1.80;;;;;;;17.23;63.07;99847.52;101037;1336;24420;-34
2022/09/23 09:33:20;;;;;;;2.90;1.40;;;;;;;17.24;63.40;99845.70;101041;1331;23096;-36
2022/09/23 09:35:56;;;;;;;3.40;1.90;;;;;;;17.63;58.34;99847.67;100930;1333;22524;-38
2022/09/23 09:38:21;;;;;;;1.90;1.50;;;;;;;17.27;57.74;99849.63;101112;1334;24319;-39
2022/09/23 09:40:47;;;;;;;1.70;1.30;;;;;;;17.01;59.85;99849.84;101051;1326;23214;-38
2022/09/23 09:43:21;;;;;;;2.40;1.40;;;;;;;17.22;59.66;99848.70;100892;1336;22738;-38
2022/09/23 09:45:57;;;;;;;2.70;1.40;;;;;;;17.28;58.49;99850.91;100899;1335;22618;-37
2022/09/23 09:48:30;;;;;;;4.40;1.50;;;;;;;17.54;59.79;99845.12;101048;1334;22741;-36
2022/09/23 09:50:55;;;;;;;1.50;1.20;;;;;;;17.79;58.08;99847.19;101046;1328;22834;-37
2022/09/23 09:53:24;;;;;;;3.40;2.10;;;;;;;18.05;56.49;99839.70;101063;1336;22745;-37
2022/09/23 09:55:57;;;;;;;2.60;1.90;;;;;;;18.10;56.62;99838.16;101038;1334;22963;-34
2022/09/23 09:58:23;;;;;;;2.80;1.60;;;;;;;18.09;55.43;99837.35;101051;1336;22589;-34
2022/09/23 10:00:51;;;;;;;2.20;1.70;;;;;;;18.32;58.91;99835.71;101078;1336;22732;-37
2022/09/23 10:03:22;;;;;;;2.90;1.50;;;;;;;18.86;56.54;99834.95;101058;1334;22495;-34
2022/09/23 10:05:51;;;;;;;1.90;1.30;;;;;;;19.14;55.93;99839.90;101057;1318;22872;-37
2022/09/23 10:08:34;;;;;;;5.50;1.40;;;;;;;19.57;54.81;99838.92;101029;1324;24373;-34
2022/09/23 10:11:00;;;;;;;24.00;0.90;;;;;;;19.67;49.66;99842.48;101120;1334;22712;-39
2022/09/23 10:13:28;;;;;;;1.80;1.40;;;;;;;18.63;50.52;99841.47;101143;1334;22500;-33
2022/09/23 10:15:54;;;;;;;1.80;1.70;;;;;;;19.09;50.02;99840.83;101083;1328;25264;-36
2022/09/23 10:18:25;;;;;;;1.30;1.10;;;;;;;19.02;50.73;99836.13;101032;1336;23100;-35
2022/09/23 10:20:51;;;;;;;6.40;2.60;;;;;;;18.65;50.34;99829.11;101099;1334;22624;-38
2022/09/23 10:23:26;;;;;;;2.00;1.10;;;;;;;18.72;50.14;99827.41;101072;1335;22875;-36
2022/09/23 10:25:56;;;;;;;1.50;0.90;;;;;;;19.42;49.87;99823.33;101019;1328;22741;-34
2022/09/23 10:28:29;;;;;;;1.40;0.80;;;;;;;20.14;51.31;99823.10;101063;1328;22888;-37
2022/09/23 10:31:02;;;;;;;2.50;1.30;;;;;;;20.59;47.36;99817.73;101070;1336;22509;-37
2022/09/23 10:33:27;;;;;;;1.20;0.50;;;;;;;20.45;45.85;99815.52;101040;1336;22516;-37
2022/09/23 10:35:56;;;;;;;1.60;1.40;;;;;;;21.07;46.36;99809.02;100979;1327;23331;-34
2022/09/23 10:38:21;;;;;;;1.80;1.00;;;;;;;21.56;44.17;99810.41;100828;1335;22751;-37
2022/09/23 10:48:26;;;;;;;1.30;1.00;;;;;;;18.32;45.74;99817.65;101091;1334;22831;-34
2022/09/23 10:50:52;;;;;;;1.00;0.70;;;;;;;17.26;47.56;99816.98;100898;1336;22988;-36
2022/09/23 10:53:27;;;;;;;2.00;1.10;;;;;;;17.06;48.48;99814.13;101031;1327;22884;-34
2022/09/23 10:56:00;;;;;;;1.40;0.80;;;;;;;17.05;49.43;99812.77;101068;1336;22557;-34
2022/09/23 10:58:37;;;;;;;1.50;1.00;;;;;;;17.03;49.77;99808.70;101064;1335;25290;-34
2022/09/23 11:01:10;;;;;;;2.50;1.30;;;;;;;17.66;49.80;99802.98;101014;1335;23098;-37
2022/09/23 11:03:44;;;;;;;1.30;0.90;;;;;;;18.39;47.88;99796.98;101037;1336;22506;-35
2022/09/23 11:06:16;;;;;;;0.70;0.50;;;;;;;18.64;48.12;99795.23;101057;1334;22488;-34
2022/09/23 11:08:50;;;;;;;1.00;0.60;;;;;;;18.58;45.73;99794.79;101048;1334;22742;-36
2022/09/23 11:11:23;;;;;;;3.50;0.80;;;;;;;18.02;45.99;99791.85;101111;1336;22627;-37
2022/09/23 11:14:02;;;;;;;1.10;0.60;;;;;;;17.66;47.71;99790.40;101055;1335;25271;-34
2022/09/23 11:16:30;;;;;;;8.10;0.90;;;;;;;17.40;48.08;99784.20;101066;1334;22854;-34
2022/09/23 11:19:00;;;;;;;1.10;0.80;;;;;;;17.22;49.33;99783.34;101075;1336;24517;-37
2022/09/23 11:21:33;;;;;;;1.50;1.40;;;;;;;17.05;49.68;99779.45;101153;1334;22941;-41
2022/09/23 11:24:00;;;;;;;2.40;1.80;;;;;;;16.88;50.61;99778.59;101084;1336;22520;-36
2022/09/23 11:26:30;;;;;;;2.20;1.40;;;;;;;16.78;51.35;99775.86;101085;1336;22485;-37
2022/09/23 11:29:05;;;;;;;1.20;0.90;;;;;;;16.47;51.48;99775.48;101069;1334;22878;-37
2022/09/23 11:31:36;;;;;;;2.70;1.20;;;;;;;16.10;52.29;99768.09;101030;1334;25231;-34
2022/09/23 11:34:06;;;;;;;1.10;0.70;;;;;;;15.91;52.78;99763.69;101092;1334;23244;-35